sensor_id;sensor_type;location;lat;lon;timestamp;pressure;altitude;pressure_sealevel;temperature;humidity
7182;BME280;3632;42.724;23.298;2023-02-28T00:00:09;95844.91;;;8.23;100.00
7182;BME280;3632;42.724;23.298;2023-02-28T00:02:37;95824.50;;;8.25;100.00
7182;BME280;3632;42.724;23.298;2023-02-28T00:05:05;95840.31;;;8.44;100.00
7182;BME280;3632;42.724;23.298;2023-02-28T00:07:32;95844.22;;;8.36;100.00
7182;BME280;3632;42.724;23.298;2023-02-28T00:09:59;95844.75;;;8.41;100.00
7182;BME280;3632;42.724;23.298;2023-02-28T00:12:26;95202.91;;;4.30;100.00
7182;BME280;3632;42.724;23.298;2023-02-28T00:14:54;95213.47;;;4.21;100.00
7182;BME280;3632;42.724;23.298;2023-02-28T00:17:21;95297.56;;;4.82;100.00
7182;BME280;3632;42.724;23.298;2023-02-28T00:19:49;95869.31;;;8.54;100.00
7182;BME280;3632;42.724;23.298;2023-02-28T00:22:17;95861.34;;;8.60;100.00
7182;BME280;3632;42.724;23.298;2023-02-28T00:24:44;95764.16;;;8.02;100.00
7182;BME280;3632;42.724;23.298;2023-02-28T00:27:12;95899.34;;;8.34;100.00
7182;BME280;3632;42.724;23.298;2023-02-28T00:29:39;95738.88;;;7.29;100.00
7182;BME280;3632;42.724;23.298;2023-02-28T00:32:07;95679.53;;;6.30;100.00
7182;BME280;3632;42.724;23.298;2023-02-28T00:34:34;95892.88;;;8.00;100.00
7182;BME280;3632;42.724;23.298;2023-02-28T00:37:03;95878.09;;;8.20;100.00
7182;BME280;3632;42.724;23.298;2023-02-28T00:39:31;95876.47;;;8.19;100.00
7182;BME280;3632;42.724;23.298;2023-02-28T00:41:57;95493.81;;;5.57;100.00
7182;BME280;3632;42.724;23.298;2023-02-28T00:44:24;95881.50;;;8.35;100.00
7182;BME280;3632;42.724;23.298;2023-02-28T00:46:51;95357.06;;;5.18;100.00
7182;BME280;3632;42.724;23.298;2023-02-28T00:49:20;95870.13;;;8.41;100.00
7182;BME280;3632;42.724;23.298;2023-02-28T00:51:47;95652.19;;;6.80;100.00
7182;BME280;3632;42.724;23.298;2023-02-28T00:54:14;95858.38;;;8.40;100.00
7182;BME280;3632;42.724;23.298;2023-02-28T00:56:40;95858.91;;;8.31;100.00
7182;BME280;3632;42.724;23.298;2023-02-28T00:59:07;95859.16;;;8.26;100.00
7182;BME280;3632;42.724;23.298;2023-02-28T01:01:34;95826.34;;;7.80;100.00
7182;BME280;3632;42.724;23.298;2023-02-28T01:04:01;95868.41;;;8.27;100.00
7182;BME280;3632;42.724;23.298;2023-02-28T01:06:29;95800.13;;;7.66;100.00
7182;BME280;3632;42.724;23.298;2023-02-28T01:08:56;95852.91;;;8.17;100.00
7182;BME280;3632;42.724;23.298;2023-02-28T01:11:24;95860.88;;;8.11;100.00
7182;BME280;3632;42.724;23.298;2023-02-28T01:13:51;95858.25;;;8.13;100.00
7182;BME280;3632;42.724;23.298;2023-02-28T01:16:18;95883.59;;;7.70;100.00
7182;BME280;3632;42.724;23.298;2023-02-28T01:18:45;95671.31;;;6.56;100.00
7182;BME280;3632;42.724;23.298;2023-02-28T01:21:14;95860.31;;;7.78;100.00
7182;BME280;3632;42.724;23.298;2023-02-28T01:23:43;95865.50;;;7.91;100.00
7182;BME280;3632;42.724;23.298;2023-02-28T01:26:12;95862.34;;;8.01;100.00
7182;BME280;3632;42.724;23.298;2023-02-28T01:28:40;95870.66;;;8.03;100.00
7182;BME280;3632;42.724;23.298;2023-02-28T01:31:08;95748.38;;;7.26;100.00
7182;BME280;3632;42.724;23.298;2023-02-28T01:33:35;95870.38;;;7.94;100.00
7182;BME280;3632;42.724;23.298;2023-02-28T01:39:25;95691.06;;;6.79;100.00
7182;BME280;3632;42.724;23.298;2023-02-28T01:41:52;95860.41;;;7.91;100.00
7182;BME280;3632;42.724;23.298;2023-02-28T01:47:36;95864.50;;;7.93;100.00
7182;BME280;3632;42.724;23.298;2023-02-28T01:50:09;95882.84;;;7.68;100.00
7182;BME280;3632;42.724;23.298;2023-02-28T01:52:37;95873.63;;;7.81;100.00
7182;BME280;3632;42.724;23.298;2023-02-28T01:55:07;95857.22;;;7.73;100.00
7182;BME280;3632;42.724;23.298;2023-02-28T01:57:37;95585.94;;;5.98;100.00
7182;BME280;3632;42.724;23.298;2023-02-28T02:00:09;95894.06;;;7.64;100.00
7182;BME280;3632;42.724;23.298;2023-02-28T02:02:39;95861.03;;;7.66;100.00
7182;BME280;3632;42.724;23.298;2023-02-28T02:05:08;95861.91;;;7.65;100.00
7182;BME280;3632;42.724;23.298;2023-02-28T02:07:38;95868.06;;;7.61;100.00
7182;BME280;3632;42.724;23.298;2023-02-28T02:10:12;95859.75;;;7.59;100.00
7182;BME280;3632;42.724;23.298;2023-02-28T02:15:38;95854.75;;;7.57;100.00
7182;BME280;3632;42.724;23.298;2023-02-28T02:18:13;95846.97;;;7.60;100.00
7182;BME280;3632;42.724;23.298;2023-02-28T02:21:23;95877.25;;;7.63;100.00
7182;BME280;3632;42.724;23.298;2023-02-28T02:26:58;95861.66;;;7.69;100.00
7182;BME280;3632;42.724;23.298;2023-02-28T02:29:45;95806.34;;;7.32;100.00
7182;BME280;3632;42.724;23.298;2023-02-28T02:32:30;95851.50;;;7.69;100.00
7182;BME280;3632;42.724;23.298;2023-02-28T02:35:12;95853.41;;;7.66;100.00
7182;BME280;3632;42.724;23.298;2023-02-28T02:37:43;95854.94;;;7.68;100.00
7182;BME280;3632;42.724;23.298;2023-02-28T02:40:15;95864.94;;;7.71;100.00
7182;BME280;3632;42.724;23.298;2023-02-28T02:42:47;95523.25;;;5.58;100.00
7182;BME280;3632;42.724;23.298;2023-02-28T02:45:22;95864.94;;;7.71;100.00
7182;BME280;3632;42.724;23.298;2023-02-28T02:47:51;95840.63;;;7.53;100.00
7182;BME280;3632;42.724;23.298;2023-02-28T02:50:24;95874.44;;;7.68;100.00
7182;BME280;3632;42.724;23.298;2023-02-28T02:52:56;95739.78;;;6.84;100.00
7182;BME280;3632;42.724;23.298;2023-02-28T02:55:24;95434.22;;;4.45;100.00
7182;BME280;3632;42.724;23.298;2023-02-28T02:57:54;95534.72;;;4.70;100.00
7182;BME280;3632;42.724;23.298;2023-02-28T03:00:28;95737.34;;;6.83;100.00
7182;BME280;3632;42.724;23.298;2023-02-28T03:02:57;95687.47;;;6.54;100.00
7182;BME280;3632;42.724;23.298;2023-02-28T03:05:33;95194.03;;;3.44;100.00
7182;BME280;3632;42.724;23.298;2023-02-28T03:08:03;95860.94;;;7.67;100.00
7182;BME280;3632;42.724;23.298;2023-02-28T03:10:37;95896.63;;;7.64;100.00
7182;BME280;3632;42.724;23.298;2023-02-28T03:13:19;95883.94;;;7.34;100.00
7182;BME280;3632;42.724;23.298;2023-02-28T03:16:02;95882.41;;;7.32;100.00
7182;BME280;3632;42.724;23.298;2023-02-28T03:18:40;95558.53;;;4.81;100.00
7182;BME280;3632;42.724;23.298;2023-02-28T03:21:15;95901.94;;;7.30;100.00
7182;BME280;3632;42.724;23.298;2023-02-28T03:23:53;95264.91;;;3.05;100.00
7182;BME280;3632;42.724;23.298;2023-02-28T03:26:23;95908.56;;;6.87;100.00
7182;BME280;3632;42.724;23.298;2023-02-28T03:28:54;95915.47;;;6.83;100.00
7182;BME280;3632;42.724;23.298;2023-02-28T03:31:30;95950.09;;;6.36;100.00
7182;BME280;3632;42.724;23.298;2023-02-28T03:34:04;95917.69;;;6.89;100.00
7182;BME280;3632;42.724;23.298;2023-02-28T03:36:37;95990.88;;;6.96;100.00
7182;BME280;3632;42.724;23.298;2023-02-28T03:39:13;95916.94;;;7.19;100.00
7182;BME280;3632;42.724;23.298;2023-02-28T03:41:43;95926.91;;;7.38;100.00
7182;BME280;3632;42.724;23.298;2023-02-28T03:44:17;95922.72;;;7.37;100.00
7182;BME280;3632;42.724;23.298;2023-02-28T03:46:52;95863.81;;;7.02;100.00
7182;BME280;3632;42.724;23.298;2023-02-28T03:49:23;95954.41;;;7.29;100.00
7182;BME280;3632;42.724;23.298;2023-02-28T03:51:54;95931.25;;;7.20;100.00
7182;BME280;3632;42.724;23.298;2023-02-28T03:54:27;95960.75;;;7.37;100.00
7182;BME280;3632;42.724;23.298;2023-02-28T03:56:59;95631.03;;;4.79;100.00
7182;BME280;3632;42.724;23.298;2023-02-28T03:59:34;95929.38;;;7.23;100.00
7182;BME280;3632;42.724;23.298;2023-02-28T04:02:03;95934.94;;;7.14;100.00
7182;BME280;3632;42.724;23.298;2023-02-28T04:04:30;95863.78;;;6.56;100.00
7182;BME280;3632;42.724;23.298;2023-02-28T04:07:04;95933.38;;;7.12;100.00
7182;BME280;3632;42.724;23.298;2023-02-28T04:09:31;95929.22;;;7.11;100.00
7182;BME280;3632;42.724;23.298;2023-02-28T04:11:58;95920.44;;;7.32;100.00
7182;BME280;3632;42.724;23.298;2023-02-28T04:14:25;95890.88;;;7.01;100.00
7182;BME280;3632;42.724;23.298;2023-02-28T04:16:52;95819.88;;;5.76;100.00
7182;BME280;3632;42.724;23.298;2023-02-28T04:19:19;95925.78;;;7.57;100.00
7182;BME280;3632;42.724;23.298;2023-02-28T04:21:48;95934.78;;;7.47;100.00
7182;BME280;3632;42.724;23.298;2023-02-28T04:24:18;95873.84;;;7.19;100.00
7182;BME280;3632;42.724;23.298;2023-02-28T04:26:46;95946.31;;;7.53;100.00
7182;BME280;3632;42.724;23.298;2023-02-28T04:29:19;96002.09;;;7.68;100.00
7182;BME280;3632;42.724;23.298;2023-02-28T04:31:46;95622.03;;;5.86;100.00
7182;BME280;3632;42.724;23.298;2023-02-28T04:34:13;95661.34;;;5.76;100.00
7182;BME280;3632;42.724;23.298;2023-02-28T04:36:40;95928.19;;;7.74;100.00
7182;BME280;3632;42.724;23.298;2023-02-28T04:39:07;95924.44;;;7.66;100.00
7182;BME280;3632;42.724;23.298;2023-02-28T04:41:36;96053.66;;;7.85;100.00
7182;BME280;3632;42.724;23.298;2023-02-28T04:44:03;95928.25;;;7.73;100.00
7182;BME280;3632;42.724;23.298;2023-02-28T04:46:30;95934.53;;;7.81;100.00
7182;BME280;3632;42.724;23.298;2023-02-28T04:48:56;95937.81;;;7.84;100.00
7182;BME280;3632;42.724;23.298;2023-02-28T04:51:24;95938.91;;;7.94;100.00
7182;BME280;3632;42.724;23.298;2023-02-28T04:53:52;95951.59;;;7.94;100.00
7182;BME280;3632;42.724;23.298;2023-02-28T04:56:19;95765.81;;;6.57;100.00
7182;BME280;3632;42.724;23.298;2023-02-28T04:58:48;95259.75;;;3.24;100.00
7182;BME280;3632;42.724;23.298;2023-02-28T05:01:21;95330.63;;;3.51;100.00
7182;BME280;3632;42.724;23.298;2023-02-28T05:03:48;95791.47;;;6.51;100.00
7182;BME280;3632;42.724;23.298;2023-02-28T05:06:16;95949.88;;;7.64;100.00
7182;BME280;3632;42.724;23.298;2023-02-28T05:08:43;95956.97;;;7.59;100.00
7182;BME280;3632;42.724;23.298;2023-02-28T05:11:15;95940.94;;;7.43;100.00
7182;BME280;3632;42.724;23.298;2023-02-28T05:13:42;95951.75;;;7.47;100.00
7182;BME280;3632;42.724;23.298;2023-02-28T05:16:10;95947.84;;;7.71;100.00
7182;BME280;3632;42.724;23.298;2023-02-28T05:18:37;95954.56;;;7.86;100.00
7182;BME280;3632;42.724;23.298;2023-02-28T05:21:04;95800.31;;;6.89;100.00
7182;BME280;3632;42.724;23.298;2023-02-28T05:23:32;96018.78;;;7.72;100.00
7182;BME280;3632;42.724;23.298;2023-02-28T05:25:58;95970.88;;;7.52;100.00
7182;BME280;3632;42.724;23.298;2023-02-28T05:28:25;95776.63;;;6.45;100.00
7182;BME280;3632;42.724;23.298;2023-02-28T05:30:52;95875.03;;;6.82;100.00
7182;BME280;3632;42.724;23.298;2023-02-28T05:33:20;95785.81;;;6.46;100.00
7182;BME280;3632;42.724;23.298;2023-02-28T05:35:47;96033.78;;;6.99;100.00
7182;BME280;3632;42.724;23.298;2023-02-28T05:38:13;95982.25;;;7.45;100.00
7182;BME280;3632;42.724;23.298;2023-02-28T05:40:40;95978.72;;;7.63;100.00
7182;BME280;3632;42.724;23.298;2023-02-28T05:43:10;95980.97;;;7.84;100.00
7182;BME280;3632;42.724;23.298;2023-02-28T05:45:37;95920.38;;;7.63;100.00
7182;BME280;3632;42.724;23.298;2023-02-28T05:48:03;95986.34;;;8.07;100.00
7182;BME280;3632;42.724;23.298;2023-02-28T05:50:32;95878.09;;;7.48;100.00
7182;BME280;3632;42.724;23.298;2023-02-28T05:52:58;95996.66;;;7.90;100.00
7182;BME280;3632;42.724;23.298;2023-02-28T05:55:25;95528.75;;;5.03;100.00
7182;BME280;3632;42.724;23.298;2023-02-28T05:57:52;95856.13;;;6.87;100.00
7182;BME280;3632;42.724;23.298;2023-02-28T06:00:19;95420.66;;;3.30;100.00
7182;BME280;3632;42.724;23.298;2023-02-28T06:02:46;95862.53;;;6.79;100.00
7182;BME280;3632;42.724;23.298;2023-02-28T06:05:14;95912.78;;;7.02;100.00
7182;BME280;3632;42.724;23.298;2023-02-28T06:07:43;95825.84;;;6.39;100.00
7182;BME280;3632;42.724;23.298;2023-02-28T06:10:11;95998.78;;;7.52;100.00
7182;BME280;3632;42.724;23.298;2023-02-28T06:12:38;95997.56;;;7.44;100.00
7182;BME280;3632;42.724;23.298;2023-02-28T06:15:07;95935.09;;;7.11;100.00
7182;BME280;3632;42.724;23.298;2023-02-28T06:17:34;95913.50;;;7.20;100.00
7182;BME280;3632;42.724;23.298;2023-02-28T06:20:01;95988.69;;;7.96;100.00
7182;BME280;3632;42.724;23.298;2023-02-28T06:22:28;95932.00;;;7.81;100.00
7182;BME280;3632;42.724;23.298;2023-02-28T06:24:56;96027.84;;;8.22;100.00
7182;BME280;3632;42.724;23.298;2023-02-28T06:27:23;95360.13;;;4.14;100.00
7182;BME280;3632;42.724;23.298;2023-02-28T06:29:53;95992.88;;;8.41;100.00
7182;BME280;3632;42.724;23.298;2023-02-28T06:32:21;95990.44;;;8.54;100.00
7182;BME280;3632;42.724;23.298;2023-02-28T06:34:47;95623.00;;;6.15;100.00
7182;BME280;3632;42.724;23.298;2023-02-28T06:37:16;96018.59;;;8.65;100.00
7182;BME280;3632;42.724;23.298;2023-02-28T06:39:43;95869.91;;;6.52;100.00
7182;BME280;3632;42.724;23.298;2023-02-28T06:42:11;96008.16;;;8.25;100.00
7182;BME280;3632;42.724;23.298;2023-02-28T06:44:38;96012.31;;;8.42;100.00
7182;BME280;3632;42.724;23.298;2023-02-28T06:47:06;96016.19;;;8.34;100.00
7182;BME280;3632;42.724;23.298;2023-02-28T06:49:34;95829.97;;;7.03;100.00
7182;BME280;3632;42.724;23.298;2023-02-28T06:52:01;96014.06;;;8.26;100.00
7182;BME280;3632;42.724;23.298;2023-02-28T06:54:28;96015.56;;;8.30;100.00
7182;BME280;3632;42.724;23.298;2023-02-28T06:56:55;95899.75;;;7.84;100.00
7182;BME280;3632;42.724;23.298;2023-02-28T06:59:23;96076.25;;;8.35;100.00
7182;BME280;3632;42.724;23.298;2023-02-28T07:01:50;96015.78;;;8.55;100.00
7182;BME280;3632;42.724;23.298;2023-02-28T07:04:17;95962.78;;;8.05;100.00
7182;BME280;3632;42.724;23.298;2023-02-28T07:06:44;95934.59;;;8.10;100.00
7182;BME280;3632;42.724;23.298;2023-02-28T07:09:10;96012.59;;;8.52;100.00
7182;BME280;3632;42.724;23.298;2023-02-28T07:11:37;96106.94;;;8.46;100.00
7182;BME280;3632;42.724;23.298;2023-02-28T07:14:04;96015.38;;;8.61;100.00
7182;BME280;3632;42.724;23.298;2023-02-28T07:16:32;96029.03;;;8.60;100.00
7182;BME280;3632;42.724;23.298;2023-02-28T07:18:59;96016.84;;;8.80;100.00
7182;BME280;3632;42.724;23.298;2023-02-28T07:21:26;96049.81;;;8.53;100.00
7182;BME280;3632;42.724;23.298;2023-02-28T07:23:53;95961.75;;;7.94;100.00
7182;BME280;3632;42.724;23.298;2023-02-28T07:26:20;96013.78;;;8.60;100.00
7182;BME280;3632;42.724;23.298;2023-02-28T07:28:48;95489.22;;;5.34;100.00
7182;BME280;3632;42.724;23.298;2023-02-28T07:31:16;96010.31;;;8.61;100.00
7182;BME280;3632;42.724;23.298;2023-02-28T07:33:45;96018.78;;;8.76;100.00
7182;BME280;3632;42.724;23.298;2023-02-28T07:36:13;95888.63;;;8.00;100.00
7182;BME280;3632;42.724;23.298;2023-02-28T07:38:41;96017.41;;;8.85;100.00
7182;BME280;3632;42.724;23.298;2023-02-28T07:41:09;96017.16;;;8.61;100.00
7182;BME280;3632;42.724;23.298;2023-02-28T07:43:36;96023.22;;;8.73;100.00
7182;BME280;3632;42.724;23.298;2023-02-28T07:46:04;95957.31;;;8.41;100.00
7182;BME280;3632;42.724;23.298;2023-02-28T07:48:31;96014.50;;;8.91;100.00
7182;BME280;3632;42.724;23.298;2023-02-28T07:51:00;96018.13;;;9.01;100.00
7182;BME280;3632;42.724;23.298;2023-02-28T07:53:28;95677.78;;;6.46;100.00
7182;BME280;3632;42.724;23.298;2023-02-28T07:55:56;96010.47;;;9.15;100.00
7182;BME280;3632;42.724;23.298;2023-02-28T07:58:23;96013.38;;;9.23;100.00
7182;BME280;3632;42.724;23.298;2023-02-28T08:00:50;96014.25;;;9.36;100.00
7182;BME280;3632;42.724;23.298;2023-02-28T08:03:18;96029.81;;;9.32;100.00
7182;BME280;3632;42.724;23.298;2023-02-28T08:05:46;96013.81;;;9.56;100.00
7182;BME280;3632;42.724;23.298;2023-02-28T08:08:15;96006.41;;;9.53;100.00
7182;BME280;3632;42.724;23.298;2023-02-28T08:10:42;95980.66;;;9.58;99.54
7182;BME280;3632;42.724;23.298;2023-02-28T08:13:09;95919.69;;;9.30;99.15
7182;BME280;3632;42.724;23.298;2023-02-28T08:15:36;96003.53;;;9.85;98.71
7182;BME280;3632;42.724;23.298;2023-02-28T08:18:03;96021.38;;;9.97;98.92
7182;BME280;3632;42.724;23.298;2023-02-28T08:20:30;95907.81;;;9.43;97.78
7182;BME280;3632;42.724;23.298;2023-02-28T08:22:57;95683.38;;;7.94;98.05
7182;BME280;3632;42.724;23.298;2023-02-28T08:25:25;96019.28;;;10.04;98.59
7182;BME280;3632;42.724;23.298;2023-02-28T08:31:15;96012.72;;;9.60;100.00
7182;BME280;3632;42.724;23.298;2023-02-28T08:33:42;95955.88;;;9.21;100.00
7182;BME280;3632;42.724;23.298;2023-02-28T08:36:11;96017.84;;;9.46;100.00
7182;BME280;3632;42.724;23.298;2023-02-28T08:38:37;96021.19;;;9.88;100.00
7182;BME280;3632;42.724;23.298;2023-02-28T08:41:08;95916.75;;;9.36;100.00
7182;BME280;3632;42.724;23.298;2023-02-28T08:43:36;96028.94;;;9.99;99.93
7182;BME280;3632;42.724;23.298;2023-02-28T08:46:03;96011.84;;;10.01;100.00
7182;BME280;3632;42.724;23.298;2023-02-28T08:48:32;96012.97;;;9.97;100.00
7182;BME280;3632;42.724;23.298;2023-02-28T08:51:00;95846.44;;;8.68;100.00
7182;BME280;3632;42.724;23.298;2023-02-28T08:53:28;95696.38;;;7.05;100.00
7182;BME280;3632;42.724;23.298;2023-02-28T08:55:59;96018.69;;;10.13;100.00
7182;BME280;3632;42.724;23.298;2023-02-28T08:58:27;95587.34;;;7.47;100.00
7182;BME280;3632;42.724;23.298;2023-02-28T09:00:55;96016.88;;;10.15;100.00
7182;BME280;3632;42.724;23.298;2023-02-28T09:03:22;96016.69;;;10.18;100.00
7182;BME280;3632;42.724;23.298;2023-02-28T09:05:57;96026.91;;;10.31;99.85
7182;BME280;3632;42.724;23.298;2023-02-28T09:08:27;96019.75;;;10.36;98.89
7182;BME280;3632;42.724;23.298;2023-02-28T09:10:55;96008.56;;;10.26;98.77
7182;BME280;3632;42.724;23.298;2023-02-28T09:13:23;95861.50;;;8.98;97.87
7182;BME280;3632;42.724;23.298;2023-02-28T09:15:52;96014.47;;;10.39;98.11
7182;BME280;3632;42.724;23.298;2023-02-28T09:18:19;96017.34;;;10.34;98.35
7182;BME280;3632;42.724;23.298;2023-02-28T09:20:46;95823.03;;;8.90;97.94
7182;BME280;3632;42.724;23.298;2023-02-28T09:23:13;96004.97;;;10.28;98.78
7182;BME280;3632;42.724;23.298;2023-02-28T09:25:46;96016.19;;;10.26;99.03
7182;BME280;3632;42.724;23.298;2023-02-28T09:28:13;96009.56;;;10.36;99.22
7182;BME280;3632;42.724;23.298;2023-02-28T09:30:43;96041.47;;;10.29;99.13
7182;BME280;3632;42.724;23.298;2023-02-28T09:33:12;96008.88;;;10.46;98.90
7182;BME280;3632;42.724;23.298;2023-02-28T09:35:39;96013.38;;;10.43;99.29
7182;BME280;3632;42.724;23.298;2023-02-28T09:38:06;96009.78;;;10.45;100.00
7182;BME280;3632;42.724;23.298;2023-02-28T09:40:36;96004.78;;;10.44;99.08
7182;BME280;3632;42.724;23.298;2023-02-28T09:43:04;96007.44;;;10.42;99.69
7182;BME280;3632;42.724;23.298;2023-02-28T09:45:34;95968.63;;;10.26;99.99
7182;BME280;3632;42.724;23.298;2023-02-28T09:48:04;96002.06;;;10.47;100.00
7182;BME280;3632;42.724;23.298;2023-02-28T09:50:39;95925.66;;;10.07;100.00
7182;BME280;3632;42.724;23.298;2023-02-28T09:53:14;95996.22;;;10.70;99.73
7182;BME280;3632;42.724;23.298;2023-02-28T09:55:47;95955.03;;;10.64;99.13
7182;BME280;3632;42.724;23.298;2023-02-28T09:58:19;95949.00;;;10.77;99.02
7182;BME280;3632;42.724;23.298;2023-02-28T10:00:54;95989.63;;;11.17;99.78
7182;BME280;3632;42.724;23.298;2023-02-28T10:03:28;95669.94;;;9.12;99.76
7182;BME280;3632;42.724;23.298;2023-02-28T10:06:02;95994.16;;;11.00;100.00
7182;BME280;3632;42.724;23.298;2023-02-28T10:08:36;95963.38;;;10.78;100.00
7182;BME280;3632;42.724;23.298;2023-02-28T10:11:09;95971.66;;;11.18;100.00
7182;BME280;3632;42.724;23.298;2023-02-28T10:13:46;95967.88;;;11.24;99.38
7182;BME280;3632;42.724;23.298;2023-02-28T10:16:19;95960.03;;;11.38;97.82
7182;BME280;3632;42.724;23.298;2023-02-28T10:18:50;95959.56;;;11.57;97.67
7182;BME280;3632;42.724;23.298;2023-02-28T10:21:24;95958.28;;;11.75;97.25
7182;BME280;3632;42.724;23.298;2023-02-28T10:23:59;95952.47;;;11.73;96.82
7182;BME280;3632;42.724;23.298;2023-02-28T10:26:31;95952.78;;;11.92;97.78
7182;BME280;3632;42.724;23.298;2023-02-28T10:28:59;95957.66;;;11.95;96.76
7182;BME280;3632;42.724;23.298;2023-02-28T10:31:26;95949.34;;;11.80;93.95
7182;BME280;3632;42.724;23.298;2023-02-28T10:33:53;95944.75;;;11.97;94.18
7182;BME280;3632;42.724;23.298;2023-02-28T10:36:21;95939.81;;;12.06;95.75
7182;BME280;3632;42.724;23.298;2023-02-28T10:38:48;95948.66;;;12.13;94.45
7182;BME280;3632;42.724;23.298;2023-02-28T10:41:17;95927.78;;;12.30;93.32
7182;BME280;3632;42.724;23.298;2023-02-28T10:44:12;95922.78;;;12.73;90.77
7182;BME280;3632;42.724;23.298;2023-02-28T10:46:40;95918.31;;;13.20;90.40
7182;BME280;3632;42.724;23.298;2023-02-28T10:49:15;95884.53;;;13.37;85.92
7182;BME280;3632;42.724;23.298;2023-02-28T10:51:45;95941.03;;;14.30;83.17
7182;BME280;3632;42.724;23.298;2023-02-28T10:54:18;95921.19;;;14.52;79.40
7182;BME280;3632;42.724;23.298;2023-02-28T10:57:05;95370.78;;;11.03;78.96
7182;BME280;3632;42.724;23.298;2023-02-28T10:59:32;95907.47;;;14.63;79.39
7182;BME280;3632;42.724;23.298;2023-02-28T11:01:59;95806.84;;;14.19;79.55
7182;BME280;3632;42.724;23.298;2023-02-28T11:04:34;95891.00;;;15.05;77.28
7182;BME280;3632;42.724;23.298;2023-02-28T11:07:06;95838.59;;;15.27;74.81
7182;BME280;3632;42.724;23.298;2023-02-28T11:09:44;95876.84;;;15.88;73.58
7182;BME280;3632;42.724;23.298;2023-02-28T11:12:20;95862.66;;;15.65;72.13
7182;BME280;3632;42.724;23.298;2023-02-28T11:14:50;95814.22;;;15.02;69.41
7182;BME280;3632;42.724;23.298;2023-02-28T11:17:21;95818.34;;;15.53;70.09
7182;BME280;3632;42.724;23.298;2023-02-28T11:19:51;95909.47;;;15.78;69.61
7182;BME280;3632;42.724;23.298;2023-02-28T11:22:23;95587.53;;;12.86;71.54
7182;BME280;3632;42.724;23.298;2023-02-28T11:24:55;95826.53;;;14.89;72.29
7182;BME280;3632;42.724;23.298;2023-02-28T11:27:46;95670.72;;;13.73;73.58
7182;BME280;3632;42.724;23.298;2023-02-28T11:30:29;95711.09;;;13.60;76.36
7182;BME280;3632;42.724;23.298;2023-02-28T11:32:57;95868.84;;;14.64;76.06
7182;BME280;3632;42.724;23.298;2023-02-28T11:35:26;95716.41;;;14.17;75.17
7182;BME280;3632;42.724;23.298;2023-02-28T11:37:57;95451.47;;;13.51;71.13
7182;BME280;3632;42.724;23.298;2023-02-28T11:40:31;95863.31;;;16.42;68.42
7182;BME280;3632;42.724;23.298;2023-02-28T11:43:06;95805.25;;;16.03;66.15
7182;BME280;3632;42.724;23.298;2023-02-28T11:45:45;95862.03;;;16.19;66.09
7182;BME280;3632;42.724;23.298;2023-02-28T11:48:20;95867.09;;;16.38;67.44
7182;BME280;3632;42.724;23.298;2023-02-28T11:50:57;95866.03;;;16.40;66.68
7182;BME280;3632;42.724;23.298;2023-02-28T11:53:41;95868.41;;;16.61;64.32
7182;BME280;3632;42.724;23.298;2023-02-28T11:56:19;95865.91;;;16.32;64.27
7182;BME280;3632;42.724;23.298;2023-02-28T11:58:55;95796.22;;;16.53;64.13
7182;BME280;3632;42.724;23.298;2023-02-28T12:01:41;95861.50;;;17.07;64.08
7182;BME280;3632;42.724;23.298;2023-02-28T12:04:21;95899.16;;;17.17;61.27
7182;BME280;3632;42.724;23.298;2023-02-28T12:06:56;95820.22;;;16.99;61.30
7182;BME280;3632;42.724;23.298;2023-02-28T12:09:38;95858.88;;;17.16;61.62
7182;BME280;3632;42.724;23.298;2023-02-28T12:12:15;95818.59;;;16.98;61.31
7182;BME280;3632;42.724;23.298;2023-02-28T12:14:56;95861.63;;;17.50;59.96
7182;BME280;3632;42.724;23.298;2023-02-28T12:17:35;95850.34;;;17.16;60.12
7182;BME280;3632;42.724;23.298;2023-02-28T12:20:12;95867.66;;;16.78;61.06
7182;BME280;3632;42.724;23.298;2023-02-28T12:22:52;95867.66;;;16.78;61.82
7182;BME280;3632;42.724;23.298;2023-02-28T12:28:18;95499.38;;;14.08;61.75
7182;BME280;3632;42.724;23.298;2023-02-28T12:30:54;95846.03;;;16.71;62.31
7182;BME280;3632;42.724;23.298;2023-02-28T12:33:28;95838.22;;;16.54;61.98
7182;BME280;3632;42.724;23.298;2023-02-28T12:36:01;95848.44;;;16.36;63.42
7182;BME280;3632;42.724;23.298;2023-02-28T12:38:34;95848.66;;;16.06;63.35
7182;BME280;3632;42.724;23.298;2023-02-28T12:41:08;95726.50;;;15.55;64.33
7182;BME280;3632;42.724;23.298;2023-02-28T12:43:40;95833.53;;;16.39;65.13
7182;BME280;3632;42.724;23.298;2023-02-28T12:46:11;95831.66;;;16.32;64.34
7182;BME280;3632;42.724;23.298;2023-02-28T12:48:41;95789.63;;;16.14;63.78
7182;BME280;3632;42.724;23.298;2023-02-28T12:51:10;95833.72;;;16.28;64.10
7182;BME280;3632;42.724;23.298;2023-02-28T12:53:49;95708.56;;;15.26;65.02
7182;BME280;3632;42.724;23.298;2023-02-28T12:56:24;95843.91;;;16.11;64.78
7182;BME280;3632;42.724;23.298;2023-02-28T12:59:00;95856.50;;;16.14;66.19
7182;BME280;3632;42.724;23.298;2023-02-28T13:01:42;95873.06;;;15.63;66.24
7182;BME280;3632;42.724;23.298;2023-02-28T13:07:35;95775.84;;;14.72;68.75
7182;BME280;3632;42.724;23.298;2023-02-28T13:10:08;95388.88;;;12.26;68.81
7182;BME280;3632;42.724;23.298;2023-02-28T13:12:47;95783.22;;;14.56;68.40
7182;BME280;3632;42.724;23.298;2023-02-28T13:15:18;95795.31;;;15.03;67.56
7182;BME280;3632;42.724;23.298;2023-02-28T13:17:49;95617.91;;;13.91;67.82
7182;BME280;3632;42.724;23.298;2023-02-28T13:20:18;95827.63;;;15.06;69.00
7182;BME280;3632;42.724;23.298;2023-02-28T13:22:47;95839.69;;;14.66;70.96
7182;BME280;3632;42.724;23.298;2023-02-28T13:34:39;95726.03;;;13.85;71.33
7182;BME280;3632;42.724;23.298;2023-02-28T13:37:36;95774.16;;;14.12;71.50
7182;BME280;3632;42.724;23.298;2023-02-28T13:40:27;95831.06;;;14.06;72.51
7182;BME280;3632;42.724;23.298;2023-02-28T13:42:54;95828.00;;;14.22;72.03
7182;BME280;3632;42.724;23.298;2023-02-28T13:45:23;95821.88;;;14.03;72.47
7182;BME280;3632;42.724;23.298;2023-02-28T13:47:58;95759.16;;;13.77;73.08
7182;BME280;3632;42.724;23.298;2023-02-28T13:50:31;95814.16;;;14.24;72.54
7182;BME280;3632;42.724;23.298;2023-02-28T13:53:28;95743.63;;;13.99;71.32
7182;BME280;3632;42.724;23.298;2023-02-28T13:56:03;95801.59;;;14.31;71.03
7182;BME280;3632;42.724;23.298;2023-02-28T13:58:43;95509.47;;;12.41;71.00